To NAV CANADA Home Page Login to a new session Search on AWWS site Feedback and Comments Disclaimer Vers la page française équivalente Tips FAQ What's new on the site To the Forecasts and Observations / NOTAM section To "File a Flight Plan" website Publications and other links Update of the User's profile FIC Telephone Numbers My Weather Data Folder Route Weather Data Regional Weather Data Local Weather Data To the Forecasts and Observations / NOTAM section
Request Generated 09/30/2016 at 01:26:39 UTC . Weather information available at that time is displayed.

METAR/TAF

CAPE DORSET/NU    (show WxCam)

METAR CYTE 300100Z AUTO 25029G41KT 9SM SCT012 BKN055 BKN120 02/M01
A2976 RMK PRESFR SLP083=
SPECI CYTE 300046Z AUTO 26024G38KT 9SM FEW009 BKN014 BKN021 BKN055
01/M00 A2979 RMK SLP092=
SPECI CYTE 300041Z AUTO 25028G38KT 8SM -SN SCT009 BKN017 BKN050
01/M00 A2978 RMK SLP089=
SPECI CYTE 300040Z AUTO 25030G38KT 6SM -SN -UP SCT009 BKN015 BKN022
BKN050 01/M00 A2977 RMK PRESFR SLP087=
SPECI CYTE 300037Z AUTO 25029G37KT 4SM -SN -UP SCT009 BKN015 BKN022
OVC047 01/00 A2978 RMK SLP089=
SPECI CYTE 300033Z AUTO 25023G32KT 4SM -RASN SCT009 BKN015 OVC022
01/00 A2978 RMK SLP090=
SPECI CYTE 300030Z AUTO 25024G32KT 5SM -RA BR FEW009 BKN017 BKN022
OVC045 01/00 A2979 RMK SLP091=
SPECI CYTE 300027Z AUTO 25022G32KT 9SM -RA BKN017 BKN025 BKN045
OVC065 02/00 A2979 RMK SLP092=
SPECI CYTE 300023Z AUTO 25026G34KT 9SM BKN017 BKN025 BKN045 OVC065
02/M00 A2979 RMK SLP092=
SPECI CYTE 300021Z AUTO 25024G34KT 9SM SCT017 BKN025 BKN045 OVC065
02/M00 A2979 RMK SLP092=
SPECI CYTE 300019Z AUTO 25025G34KT 9SM SCT017 BKN022 BKN045 OVC065
02/M00 A2979 RMK SLP091=
METAR CYTE 300000Z AUTO 26023G36KT 9SM BKN065 BKN099 02/M01 A2979 RMK
SLP092=
SPECI CYTE 292305Z AUTO 25025G40KT 9SM SCT013 OVC055 02/M00 A2978 RMK
SLP090=
METAR CYTE 292300Z AUTO 25027G36KT 9SM SCT013 BKN021 OVC055 02/M00
A2977 RMK SLP087=

TAF CYTE 300038Z 3001/3013 26025G35KT P6SM SCT009 BKN040 TEMPO
3001/3013 21/2SM -SHRASN BR BKN009
BECMG 3007/3009 27020G30KT
RMK FCST BASED ON AUTO OBS. NXT FCST BY 300700Z=
Your time UTC time
Weather data provided by Environment Canada and NAV CANADA